Langdon, KS (67583)

4:26 AM CST on November 22, 2014 (GMT -0600)
Pratt Industrial | Change Station
CLOSE
Current Station
Airport
Location: Pratt,
Elevation: 1952 ft
Nearby Weather Stations
Active Advisory: Dense Fog Advisory

Elev 1952 ft 37.70 °N, 98.75 °W | Updated 11 minutes ago

Fog
Fog
34 °F
Feels Like 27 °F
N
8
Wind Variable Wind from South

Today
High -- | Low -- °F
--% Chance of Precip.
Yesterday
High -- | Low -- °F
Precip. -- in
7:21 AM 5:17 PM
Waning Crescent, 0% visible
Pressure 29.97 in
Visibility 0.8 miles
Clouds Overcast 200 ft
Windchill 27 °F
Dew Point 34 °F
Humidity 100%
Rainfall 0.00 in
Snow Depth Not available.
UV 0 out of 12
Pollen .10 out of 12
Air Quality Not available.
Flu Activity Not available.
METAR KPTT 221015Z AUTO 19007KT 3/4SM BR OVC002 01/01 A2997 RMK AO2 LTG DSNT SE AND S

More Conditions Fewer Conditions

Pressure 29.97 in
Visibility 0.8 miles
Clouds Overcast 200 ft
Windchill 27 °F
Dew Point 34 °F
Humidity 100%
Rainfall 0.00 in
Snow Depth Not available.
UV 0 out of 12
Pollen .10 out of 12
Air Quality Not available.
Flu Activity Not available.
METAR KPTT 221015Z AUTO 19007KT 3/4SM BR OVC002 01/01 A2997 RMK AO2 LTG DSNT SE AND S

More Conditions Fewer Conditions

10-Day Weather Forecast

Almanac

Astronomy

Nov. 22, 2014 Rise Set
Actual Time
Civil Twilight
Nautical Twilight
Astronomical Twilight
Moon
Length of Visible Light
Length of Day
Tomorrow will be .
, % of the Moon is Illuminated

Today's Extremes

State Highs State Lows

Community

WunderPhotos

Upload Photos

1,772,799 photos uploaded!

WunderBlogs® & News

Nearby

Air Quality

  Air Quality AQ Index Pollutant
Not available.

Snow Depth

Station Depth Elevation

Earthquake Activity

City Distance Mag. Time & Date
Minimum magnitude displayed is 2.5.

Coastal Water Temperatures

Place Temperature

Nearby Weather Stations